sensor_id;sensor_type;location;lat;lon;timestamp;P1;durP1;ratioP1;P2;durP2;ratioP2
24401;SDS011;12539;48.808;11.292;2022-09-14T00:01:12;4.80;;;4.05;;
24401;SDS011;12539;48.808;11.292;2022-09-14T00:03:41;4.25;;;3.85;;
24401;SDS011;12539;48.808;11.292;2022-09-14T00:06:08;2.75;;;2.55;;
24401;SDS011;12539;48.808;11.292;2022-09-14T00:08:38;6.05;;;5.45;;
24401;SDS011;12539;48.808;11.292;2022-09-14T00:11:08;7.25;;;4.45;;
24401;SDS011;12539;48.808;11.292;2022-09-14T00:13:36;6.57;;;4.18;;
24401;SDS011;12539;48.808;11.292;2022-09-14T00:16:04;5.10;;;4.70;;
24401;SDS011;12539;48.808;11.292;2022-09-14T00:18:32;5.50;;;4.53;;
24401;SDS011;12539;48.808;11.292;2022-09-14T00:21:00;3.40;;;3.10;;
24401;SDS011;12539;48.808;11.292;2022-09-14T00:23:27;3.47;;;3.17;;
24401;SDS011;12539;48.808;11.292;2022-09-14T00:25:53;6.10;;;4.80;;
24401;SDS011;12539;48.808;11.292;2022-09-14T00:28:19;5.18;;;4.70;;
24401;SDS011;12539;48.808;11.292;2022-09-14T00:30:45;3.75;;;2.97;;
24401;SDS011;12539;48.808;11.292;2022-09-14T00:33:11;5.70;;;3.67;;
24401;SDS011;12539;48.808;11.292;2022-09-14T00:35:37;2.92;;;2.67;;
24401;SDS011;12539;48.808;11.292;2022-09-14T00:38:04;4.35;;;3.08;;
24401;SDS011;12539;48.808;11.292;2022-09-14T00:40:31;3.92;;;3.50;;
24401;SDS011;12539;48.808;11.292;2022-09-14T00:42:57;3.22;;;2.97;;
24401;SDS011;12539;48.808;11.292;2022-09-14T00:45:23;5.80;;;4.45;;
24401;SDS011;12539;48.808;11.292;2022-09-14T00:47:50;4.90;;;4.20;;
24401;SDS011;12539;48.808;11.292;2022-09-14T00:50:18;5.03;;;4.63;;
24401;SDS011;12539;48.808;11.292;2022-09-14T00:52:46;5.00;;;3.20;;
24401;SDS011;12539;48.808;11.292;2022-09-14T00:55:14;4.40;;;4.03;;
24401;SDS011;12539;48.808;11.292;2022-09-14T00:57:45;5.50;;;2.88;;
24401;SDS011;12539;48.808;11.292;2022-09-14T01:00:14;2.58;;;2.38;;
24401;SDS011;12539;48.808;11.292;2022-09-14T01:02:42;2.40;;;2.20;;
24401;SDS011;12539;48.808;11.292;2022-09-14T01:05:08;1.92;;;1.83;;
24401;SDS011;12539;48.808;11.292;2022-09-14T01:10:28;2.65;;;2.45;;
24401;SDS011;12539;48.808;11.292;2022-09-14T01:13:13;2.85;;;2.60;;
24401;SDS011;12539;48.808;11.292;2022-09-14T01:18:26;2.22;;;2.03;;
24401;SDS011;12539;48.808;11.292;2022-09-14T01:20:58;2.28;;;2.08;;
24401;SDS011;12539;48.808;11.292;2022-09-14T01:34:55;2.88;;;2.25;;
24401;SDS011;12539;48.808;11.292;2022-09-14T01:37:30;2.13;;;1.92;;
24401;SDS011;12539;48.808;11.292;2022-09-14T01:40:06;2.72;;;2.53;;
24401;SDS011;12539;48.808;11.292;2022-09-14T01:42:42;3.83;;;3.30;;
24401;SDS011;12539;48.808;11.292;2022-09-14T01:45:11;5.47;;;5.00;;
24401;SDS011;12539;48.808;11.292;2022-09-14T01:47:46;5.10;;;4.18;;
24401;SDS011;12539;48.808;11.292;2022-09-14T01:50:21;3.25;;;2.95;;
24401;SDS011;12539;48.808;11.292;2022-09-14T01:52:59;4.65;;;4.25;;
24401;SDS011;12539;48.808;11.292;2022-09-14T01:55:52;5.35;;;4.35;;
24401;SDS011;12539;48.808;11.292;2022-09-14T01:58:21;2.60;;;2.38;;
24401;SDS011;12539;48.808;11.292;2022-09-14T02:00:57;3.20;;;2.97;;
24401;SDS011;12539;48.808;11.292;2022-09-14T02:03:35;2.55;;;2.35;;
24401;SDS011;12539;48.808;11.292;2022-09-14T02:08:43;4.22;;;2.92;;
24401;SDS011;12539;48.808;11.292;2022-09-14T02:11:09;5.78;;;2.80;;
24401;SDS011;12539;48.808;11.292;2022-09-14T02:13:35;2.10;;;1.92;;
24401;SDS011;12539;48.808;11.292;2022-09-14T02:16:00;3.33;;;2.17;;
24401;SDS011;12539;48.808;11.292;2022-09-14T02:18:26;3.30;;;3.00;;
24401;SDS011;12539;48.808;11.292;2022-09-14T02:21:03;3.17;;;2.88;;
24401;SDS011;12539;48.808;11.292;2022-09-14T02:23:43;4.28;;;3.92;;
24401;SDS011;12539;48.808;11.292;2022-09-14T02:26:11;3.95;;;3.20;;
24401;SDS011;12539;48.808;11.292;2022-09-14T02:28:37;5.45;;;3.75;;
24401;SDS011;12539;48.808;11.292;2022-09-14T02:34:12;5.55;;;4.95;;
24401;SDS011;12539;48.808;11.292;2022-09-14T02:36:50;2.47;;;2.28;;
24401;SDS011;12539;48.808;11.292;2022-09-14T02:42:06;2.80;;;2.60;;
24401;SDS011;12539;48.808;11.292;2022-09-14T02:47:20;2.83;;;2.63;;
24401;SDS011;12539;48.808;11.292;2022-09-14T02:50:12;6.03;;;5.30;;
24401;SDS011;12539;48.808;11.292;2022-09-14T02:52:48;3.17;;;2.88;;
24401;SDS011;12539;48.808;11.292;2022-09-14T02:55:22;3.08;;;2.78;;
24401;SDS011;12539;48.808;11.292;2022-09-14T02:58:07;3.42;;;3.15;;
24401;SDS011;12539;48.808;11.292;2022-09-14T03:00:38;7.15;;;5.30;;
24401;SDS011;12539;48.808;11.292;2022-09-14T03:03:06;8.98;;;5.55;;
24401;SDS011;12539;48.808;11.292;2022-09-14T03:05:33;5.90;;;5.38;;
24401;SDS011;12539;48.808;11.292;2022-09-14T03:07:59;6.32;;;5.75;;
24401;SDS011;12539;48.808;11.292;2022-09-14T03:10:26;11.40;;;8.13;;
24401;SDS011;12539;48.808;11.292;2022-09-14T03:12:52;8.85;;;8.05;;
24401;SDS011;12539;48.808;11.292;2022-09-14T03:15:18;8.07;;;7.18;;
24401;SDS011;12539;48.808;11.292;2022-09-14T03:17:45;13.32;;;10.23;;
24401;SDS011;12539;48.808;11.292;2022-09-14T03:20:13;14.32;;;9.52;;
24401;SDS011;12539;48.808;11.292;2022-09-14T03:22:39;12.75;;;8.85;;
24401;SDS011;12539;48.808;11.292;2022-09-14T03:25:05;8.02;;;6.60;;
24401;SDS011;12539;48.808;11.292;2022-09-14T03:27:31;8.13;;;4.55;;
24401;SDS011;12539;48.808;11.292;2022-09-14T03:29:57;5.50;;;4.78;;
24401;SDS011;12539;48.808;11.292;2022-09-14T03:32:23;6.07;;;5.50;;
24401;SDS011;12539;48.808;11.292;2022-09-14T03:34:48;8.13;;;4.63;;
24401;SDS011;12539;48.808;11.292;2022-09-14T03:37:14;5.63;;;4.95;;
24401;SDS011;12539;48.808;11.292;2022-09-14T03:39:39;9.70;;;8.70;;
24401;SDS011;12539;48.808;11.292;2022-09-14T03:42:05;11.13;;;9.05;;
24401;SDS011;12539;48.808;11.292;2022-09-14T03:44:31;10.82;;;8.80;;
24401;SDS011;12539;48.808;11.292;2022-09-14T03:46:56;11.00;;;9.85;;
24401;SDS011;12539;48.808;11.292;2022-09-14T03:49:22;11.60;;;10.43;;
24401;SDS011;12539;48.808;11.292;2022-09-14T03:51:48;14.52;;;10.93;;
24401;SDS011;12539;48.808;11.292;2022-09-14T03:54:13;16.05;;;13.32;;
24401;SDS011;12539;48.808;11.292;2022-09-14T03:56:39;25.90;;;16.65;;
24401;SDS011;12539;48.808;11.292;2022-09-14T03:59:07;56.75;;;25.45;;
24401;SDS011;12539;48.808;11.292;2022-09-14T04:01:33;13.57;;;11.43;;
24401;SDS011;12539;48.808;11.292;2022-09-14T04:03:59;18.65;;;12.93;;
24401;SDS011;12539;48.808;11.292;2022-09-14T04:06:24;86.32;;;33.20;;
24401;SDS011;12539;48.808;11.292;2022-09-14T04:08:50;56.95;;;33.03;;
24401;SDS011;12539;48.808;11.292;2022-09-14T04:11:21;27.58;;;18.23;;
24401;SDS011;12539;48.808;11.292;2022-09-14T04:13:54;30.42;;;22.30;;
24401;SDS011;12539;48.808;11.292;2022-09-14T04:16:39;54.63;;;27.42;;
24401;SDS011;12539;48.808;11.292;2022-09-14T04:19:05;62.33;;;32.13;;
24401;SDS011;12539;48.808;11.292;2022-09-14T04:21:32;48.25;;;24.15;;
24401;SDS011;12539;48.808;11.292;2022-09-14T04:23:57;35.80;;;24.65;;
24401;SDS011;12539;48.808;11.292;2022-09-14T04:26:25;38.83;;;25.55;;
24401;SDS011;12539;48.808;11.292;2022-09-14T04:28:55;29.60;;;19.17;;
24401;SDS011;12539;48.808;11.292;2022-09-14T04:31:22;73.60;;;35.83;;
24401;SDS011;12539;48.808;11.292;2022-09-14T04:33:48;66.03;;;32.67;;
24401;SDS011;12539;48.808;11.292;2022-09-14T04:36:19;56.28;;;29.75;;
24401;SDS011;12539;48.808;11.292;2022-09-14T04:38:46;78.50;;;39.53;;
24401;SDS011;12539;48.808;11.292;2022-09-14T04:41:13;36.55;;;24.55;;
24401;SDS011;12539;48.808;11.292;2022-09-14T04:43:41;83.30;;;42.03;;
24401;SDS011;12539;48.808;11.292;2022-09-14T04:46:12;73.50;;;37.78;;
24401;SDS011;12539;48.808;11.292;2022-09-14T04:48:40;36.00;;;21.90;;
24401;SDS011;12539;48.808;11.292;2022-09-14T04:51:07;62.92;;;31.52;;
24401;SDS011;12539;48.808;11.292;2022-09-14T04:53:36;66.00;;;36.28;;
24401;SDS011;12539;48.808;11.292;2022-09-14T04:56:04;59.53;;;33.47;;
24401;SDS011;12539;48.808;11.292;2022-09-14T04:58:31;64.50;;;33.38;;
24401;SDS011;12539;48.808;11.292;2022-09-14T05:01:05;66.90;;;34.47;;
24401;SDS011;12539;48.808;11.292;2022-09-14T05:03:33;44.85;;;29.85;;
24401;SDS011;12539;48.808;11.292;2022-09-14T05:06:03;45.13;;;25.77;;
24401;SDS011;12539;48.808;11.292;2022-09-14T05:08:30;43.28;;;26.45;;
24401;SDS011;12539;48.808;11.292;2022-09-14T05:10:57;59.38;;;27.88;;
24401;SDS011;12539;48.808;11.292;2022-09-14T05:13:23;67.03;;;32.75;;
24401;SDS011;12539;48.808;11.292;2022-09-14T05:15:49;35.97;;;25.17;;
24401;SDS011;12539;48.808;11.292;2022-09-14T05:18:15;75.05;;;36.35;;
24401;SDS011;12539;48.808;11.292;2022-09-14T05:20:41;45.25;;;24.00;;
24401;SDS011;12539;48.808;11.292;2022-09-14T05:23:07;63.72;;;33.13;;
24401;SDS011;12539;48.808;11.292;2022-09-14T05:25:33;40.90;;;25.42;;
24401;SDS011;12539;48.808;11.292;2022-09-14T05:27:59;38.80;;;25.10;;
24401;SDS011;12539;48.808;11.292;2022-09-14T05:30:25;62.70;;;35.80;;
24401;SDS011;12539;48.808;11.292;2022-09-14T05:32:50;70.97;;;37.50;;
24401;SDS011;12539;48.808;11.292;2022-09-14T05:35:17;59.72;;;34.55;;
24401;SDS011;12539;48.808;11.292;2022-09-14T05:37:42;41.55;;;28.25;;
24401;SDS011;12539;48.808;11.292;2022-09-14T05:40:08;35.22;;;22.60;;
24401;SDS011;12539;48.808;11.292;2022-09-14T05:42:34;31.58;;;23.25;;
24401;SDS011;12539;48.808;11.292;2022-09-14T05:45:00;28.83;;;19.90;;
24401;SDS011;12539;48.808;11.292;2022-09-14T05:47:29;53.20;;;27.30;;
24401;SDS011;12539;48.808;11.292;2022-09-14T05:49:56;37.53;;;23.92;;
24401;SDS011;12539;48.808;11.292;2022-09-14T05:52:22;59.10;;;30.13;;
24401;SDS011;12539;48.808;11.292;2022-09-14T05:54:48;52.17;;;30.80;;
24401;SDS011;12539;48.808;11.292;2022-09-14T05:57:14;39.05;;;25.23;;
24401;SDS011;12539;48.808;11.292;2022-09-14T05:59:39;73.63;;;39.33;;
24401;SDS011;12539;48.808;11.292;2022-09-14T06:02:05;56.42;;;31.45;;
24401;SDS011;12539;48.808;11.292;2022-09-14T06:04:31;27.45;;;20.88;;
24401;SDS011;12539;48.808;11.292;2022-09-14T06:06:57;61.47;;;34.75;;
24401;SDS011;12539;48.808;11.292;2022-09-14T06:09:22;43.28;;;24.58;;
24401;SDS011;12539;48.808;11.292;2022-09-14T06:11:48;49.17;;;31.90;;
24401;SDS011;12539;48.808;11.292;2022-09-14T06:14:14;33.55;;;23.75;;
24401;SDS011;12539;48.808;11.292;2022-09-14T06:16:43;48.00;;;29.17;;
24401;SDS011;12539;48.808;11.292;2022-09-14T06:19:09;19.45;;;14.93;;
24401;SDS011;12539;48.808;11.292;2022-09-14T06:21:36;55.90;;;33.28;;
24401;SDS011;12539;48.808;11.292;2022-09-14T06:24:02;28.30;;;17.95;;
24401;SDS011;12539;48.808;11.292;2022-09-14T06:26:28;48.60;;;31.90;;
24401;SDS011;12539;48.808;11.292;2022-09-14T06:28:55;53.72;;;29.92;;
24401;SDS011;12539;48.808;11.292;2022-09-14T06:31:23;31.45;;;20.17;;
24401;SDS011;12539;48.808;11.292;2022-09-14T06:33:49;16.25;;;12.27;;
24401;SDS011;12539;48.808;11.292;2022-09-14T06:36:17;57.35;;;31.55;;
24401;SDS011;12539;48.808;11.292;2022-09-14T06:38:45;43.75;;;28.27;;
24401;SDS011;12539;48.808;11.292;2022-09-14T06:41:14;22.95;;;16.90;;
24401;SDS011;12539;48.808;11.292;2022-09-14T06:43:44;53.55;;;30.48;;
24401;SDS011;12539;48.808;11.292;2022-09-14T06:48:45;17.10;;;13.73;;
24401;SDS011;12539;48.808;11.292;2022-09-14T06:51:24;34.63;;;25.93;;
24401;SDS011;12539;48.808;11.292;2022-09-14T06:53:54;27.67;;;19.63;;
24401;SDS011;12539;48.808;11.292;2022-09-14T06:56:22;29.92;;;23.33;;
24401;SDS011;12539;48.808;11.292;2022-09-14T06:58:47;15.80;;;13.82;;
24401;SDS011;12539;48.808;11.292;2022-09-14T07:01:14;34.22;;;24.45;;
24401;SDS011;12539;48.808;11.292;2022-09-14T07:03:42;16.92;;;14.23;;
24401;SDS011;12539;48.808;11.292;2022-09-14T07:06:10;25.08;;;20.85;;
24401;SDS011;12539;48.808;11.292;2022-09-14T07:08:38;16.65;;;13.95;;
24401;SDS011;12539;48.808;11.292;2022-09-14T07:11:05;22.30;;;18.13;;
24401;SDS011;12539;48.808;11.292;2022-09-14T07:13:32;21.20;;;17.35;;
24401;SDS011;12539;48.808;11.292;2022-09-14T07:15:58;23.58;;;19.63;;
24401;SDS011;12539;48.808;11.292;2022-09-14T07:18:24;19.27;;;17.35;;
24401;SDS011;12539;48.808;11.292;2022-09-14T07:23:37;24.95;;;21.35;;
24401;SDS011;12539;48.808;11.292;2022-09-14T07:26:08;11.75;;;10.20;;
24401;SDS011;12539;48.808;11.292;2022-09-14T07:28:57;25.80;;;23.20;;
24401;SDS011;12539;48.808;11.292;2022-09-14T07:31:29;15.40;;;13.85;;
24401;SDS011;12539;48.808;11.292;2022-09-14T07:33:58;13.35;;;12.05;;
24401;SDS011;12539;48.808;11.292;2022-09-14T07:36:26;16.95;;;15.20;;
24401;SDS011;12539;48.808;11.292;2022-09-14T07:38:53;9.70;;;8.77;;
24401;SDS011;12539;48.808;11.292;2022-09-14T07:41:19;28.55;;;25.45;;
24401;SDS011;12539;48.808;11.292;2022-09-14T07:43:49;16.35;;;14.75;;
24401;SDS011;12539;48.808;11.292;2022-09-14T07:46:16;16.42;;;14.82;;
24401;SDS011;12539;48.808;11.292;2022-09-14T07:48:42;22.52;;;20.13;;
24401;SDS011;12539;48.808;11.292;2022-09-14T07:51:08;13.90;;;12.55;;
24401;SDS011;12539;48.808;11.292;2022-09-14T07:53:39;16.88;;;15.18;;
24401;SDS011;12539;48.808;11.292;2022-09-14T07:56:09;9.00;;;8.18;;
24401;SDS011;12539;48.808;11.292;2022-09-14T07:58:37;11.10;;;10.05;;
24401;SDS011;12539;48.808;11.292;2022-09-14T08:01:04;21.05;;;18.88;;
24401;SDS011;12539;48.808;11.292;2022-09-14T08:03:32;16.88;;;15.07;;
24401;SDS011;12539;48.808;11.292;2022-09-14T08:06:11;8.63;;;7.72;;
24401;SDS011;12539;48.808;11.292;2022-09-14T08:11:11;6.15;;;5.55;;
24401;SDS011;12539;48.808;11.292;2022-09-14T08:13:40;13.57;;;12.30;;
24401;SDS011;12539;48.808;11.292;2022-09-14T08:16:08;14.60;;;13.18;;
24401;SDS011;12539;48.808;11.292;2022-09-14T08:18:34;14.95;;;13.52;;
24401;SDS011;12539;48.808;11.292;2022-09-14T08:21:07;12.02;;;10.90;;
24401;SDS011;12539;48.808;11.292;2022-09-14T08:23:34;15.38;;;13.88;;
24401;SDS011;12539;48.808;11.292;2022-09-14T08:26:04;11.30;;;10.23;;
24401;SDS011;12539;48.808;11.292;2022-09-14T08:28:32;13.63;;;12.32;;
24401;SDS011;12539;48.808;11.292;2022-09-14T08:31:02;8.85;;;7.97;;
24401;SDS011;12539;48.808;11.292;2022-09-14T08:36:06;9.02;;;8.13;;
24401;SDS011;12539;48.808;11.292;2022-09-14T08:38:33;11.38;;;8.57;;
24401;SDS011;12539;48.808;11.292;2022-09-14T08:41:13;9.30;;;7.55;;
24401;SDS011;12539;48.808;11.292;2022-09-14T08:43:46;7.65;;;6.95;;
24401;SDS011;12539;48.808;11.292;2022-09-14T08:46:26;11.00;;;7.32;;
24401;SDS011;12539;48.808;11.292;2022-09-14T08:48:55;12.98;;;10.15;;
24401;SDS011;12539;48.808;11.292;2022-09-14T08:51:22;7.97;;;7.28;;
24401;SDS011;12539;48.808;11.292;2022-09-14T08:53:49;9.38;;;8.48;;
24401;SDS011;12539;48.808;11.292;2022-09-14T08:56:17;12.10;;;8.38;;
24401;SDS011;12539;48.808;11.292;2022-09-14T09:09:45;6.32;;;5.80;;
24401;SDS011;12539;48.808;11.292;2022-09-14T09:12:17;9.23;;;8.25;;
24401;SDS011;12539;48.808;11.292;2022-09-14T09:15:14;6.07;;;5.50;;
24401;SDS011;12539;48.808;11.292;2022-09-14T09:17:45;7.18;;;6.47;;
24401;SDS011;12539;48.808;11.292;2022-09-14T09:25:27;7.00;;;6.20;;
24401;SDS011;12539;48.808;11.292;2022-09-14T09:28:08;6.13;;;5.63;;
24401;SDS011;12539;48.808;11.292;2022-09-14T09:30:34;9.25;;;6.57;;
24401;SDS011;12539;48.808;11.292;2022-09-14T09:33:00;5.18;;;4.68;;
24401;SDS011;12539;48.808;11.292;2022-09-14T09:35:26;6.25;;;4.53;;
24401;SDS011;12539;48.808;11.292;2022-09-14T09:37:52;7.05;;;4.82;;
24401;SDS011;12539;48.808;11.292;2022-09-14T09:40:19;4.10;;;3.70;;
24401;SDS011;12539;48.808;11.292;2022-09-14T09:43:04;6.07;;;3.65;;
24401;SDS011;12539;48.808;11.292;2022-09-14T09:45:53;4.90;;;4.03;;
24401;SDS011;12539;48.808;11.292;2022-09-14T09:48:21;6.32;;;4.85;;
24401;SDS011;12539;48.808;11.292;2022-09-14T09:51:00;5.95;;;4.60;;
24401;SDS011;12539;48.808;11.292;2022-09-14T09:53:31;4.95;;;4.07;;
24401;SDS011;12539;48.808;11.292;2022-09-14T09:56:00;6.15;;;4.15;;
24401;SDS011;12539;48.808;11.292;2022-09-14T09:58:35;4.72;;;4.25;;
24401;SDS011;12539;48.808;11.292;2022-09-14T10:01:04;6.13;;;4.40;;
24401;SDS011;12539;48.808;11.292;2022-09-14T10:03:35;6.07;;;3.97;;
24401;SDS011;12539;48.808;11.292;2022-09-14T10:06:05;7.57;;;4.13;;
24401;SDS011;12539;48.808;11.292;2022-09-14T10:08:45;8.50;;;4.68;;
24401;SDS011;12539;48.808;11.292;2022-09-14T10:14:22;5.80;;;4.00;;
24401;SDS011;12539;48.808;11.292;2022-09-14T10:16:51;4.72;;;3.67;;
24401;SDS011;12539;48.808;11.292;2022-09-14T10:19:22;3.80;;;3.03;;
24401;SDS011;12539;48.808;11.292;2022-09-14T10:25:02;4.72;;;3.75;;
24401;SDS011;12539;48.808;11.292;2022-09-14T10:27:46;3.88;;;3.20;;
24401;SDS011;12539;48.808;11.292;2022-09-14T10:30:19;4.28;;;2.50;;
24401;SDS011;12539;48.808;11.292;2022-09-14T10:32:57;5.53;;;3.08;;
24401;SDS011;12539;48.808;11.292;2022-09-14T10:40:40;3.95;;;2.58;;
24401;SDS011;12539;48.808;11.292;2022-09-14T10:43:41;6.53;;;3.08;;
24401;SDS011;12539;48.808;11.292;2022-09-14T10:46:34;10.98;;;2.83;;
24401;SDS011;12539;48.808;11.292;2022-09-14T10:49:17;4.93;;;3.13;;
24401;SDS011;12539;48.808;11.292;2022-09-14T10:51:47;5.07;;;3.42;;
24401;SDS011;12539;48.808;11.292;2022-09-14T10:54:30;4.63;;;3.13;;
24401;SDS011;12539;48.808;11.292;2022-09-14T11:08:56;6.22;;;3.00;;
24401;SDS011;12539;48.808;11.292;2022-09-14T11:14:16;2.70;;;2.13;;
24401;SDS011;12539;48.808;11.292;2022-09-14T11:16:58;3.70;;;2.25;;
24401;SDS011;12539;48.808;11.292;2022-09-14T11:24:57;3.78;;;2.42;;
24401;SDS011;12539;48.808;11.292;2022-09-14T11:27:39;2.78;;;1.92;;
24401;SDS011;12539;48.808;11.292;2022-09-14T11:30:11;3.03;;;2.05;;
24401;SDS011;12539;48.808;11.292;2022-09-14T11:32:54;4.50;;;2.20;;
24401;SDS011;12539;48.808;11.292;2022-09-14T11:44:03;4.15;;;1.90;;
24401;SDS011;12539;48.808;11.292;2022-09-14T11:46:44;3.35;;;2.03;;
24401;SDS011;12539;48.808;11.292;2022-09-14T11:49:27;4.18;;;1.90;;
24401;SDS011;12539;48.808;11.292;2022-09-14T11:52:06;6.90;;;2.80;;
24401;SDS011;12539;48.808;11.292;2022-09-14T11:54:41;3.80;;;1.80;;
24401;SDS011;12539;48.808;11.292;2022-09-14T11:57:18;2.88;;;2.00;;
24401;SDS011;12539;48.808;11.292;2022-09-14T12:12:45;4.43;;;2.10;;
24401;SDS011;12539;48.808;11.292;2022-09-14T12:17:47;2.17;;;1.70;;
24401;SDS011;12539;48.808;11.292;2022-09-14T12:20:29;5.20;;;1.95;;
24401;SDS011;12539;48.808;11.292;2022-09-14T12:26:09;3.83;;;1.58;;
24401;SDS011;12539;48.808;11.292;2022-09-14T12:31:27;2.83;;;1.38;;
24401;SDS011;12539;48.808;11.292;2022-09-14T12:49:48;3.58;;;1.88;;
24401;SDS011;12539;48.808;11.292;2022-09-14T12:52:25;4.43;;;1.33;;
24401;SDS011;12539;48.808;11.292;2022-09-14T12:55:49;3.90;;;1.95;;
24401;SDS011;12539;48.808;11.292;2022-09-14T12:58:23;5.28;;;1.60;;
24401;SDS011;12539;48.808;11.292;2022-09-14T13:03:45;2.15;;;1.70;;
24401;SDS011;12539;48.808;11.292;2022-09-14T13:06:16;1.98;;;1.60;;
24401;SDS011;12539;48.808;11.292;2022-09-14T13:08:46;3.08;;;1.58;;
24401;SDS011;12539;48.808;11.292;2022-09-14T13:11:52;4.03;;;1.60;;
24401;SDS011;12539;48.808;11.292;2022-09-14T13:14:19;4.45;;;2.13;;
24401;SDS011;12539;48.808;11.292;2022-09-14T13:16:49;4.65;;;2.10;;
24401;SDS011;12539;48.808;11.292;2022-09-14T13:19:37;3.50;;;1.52;;
24401;SDS011;12539;48.808;11.292;2022-09-14T13:22:02;1.85;;;1.20;;
24401;SDS011;12539;48.808;11.292;2022-09-14T13:24:43;2.72;;;1.60;;
24401;SDS011;12539;48.808;11.292;2022-09-14T13:27:19;3.95;;;2.00;;
24401;SDS011;12539;48.808;11.292;2022-09-14T13:32:55;1.60;;;1.50;;
24401;SDS011;12539;48.808;11.292;2022-09-14T13:38:16;4.50;;;1.80;;
24401;SDS011;12539;48.808;11.292;2022-09-14T13:40:48;3.38;;;1.50;;
24401;SDS011;12539;48.808;11.292;2022-09-14T13:43:16;2.72;;;1.52;;
24401;SDS011;12539;48.808;11.292;2022-09-14T13:45:43;2.55;;;1.58;;
24401;SDS011;12539;48.808;11.292;2022-09-14T13:48:11;2.42;;;1.73;;
24401;SDS011;12539;48.808;11.292;2022-09-14T13:50:39;5.45;;;1.92;;
24401;SDS011;12539;48.808;11.292;2022-09-14T13:56:13;3.28;;;1.83;;
24401;SDS011;12539;48.808;11.292;2022-09-14T13:58:44;1.55;;;1.45;;
24401;SDS011;12539;48.808;11.292;2022-09-14T14:01:12;2.55;;;1.70;;
24401;SDS011;12539;48.808;11.292;2022-09-14T14:03:47;2.17;;;1.63;;
24401;SDS011;12539;48.808;11.292;2022-09-14T14:06:22;1.88;;;1.33;;
24401;SDS011;12539;48.808;11.292;2022-09-14T14:08:54;2.47;;;1.60;;
24401;SDS011;12539;48.808;11.292;2022-09-14T14:11:28;1.63;;;1.10;;
24401;SDS011;12539;48.808;11.292;2022-09-14T14:14:08;1.70;;;1.58;;
24401;SDS011;12539;48.808;11.292;2022-09-14T14:16:34;2.13;;;1.60;;
24401;SDS011;12539;48.808;11.292;2022-09-14T14:19:00;2.90;;;2.00;;
24401;SDS011;12539;48.808;11.292;2022-09-14T14:21:27;2.97;;;1.40;;
24401;SDS011;12539;48.808;11.292;2022-09-14T14:26:48;1.95;;;1.40;;
24401;SDS011;12539;48.808;11.292;2022-09-14T14:29:15;2.78;;;1.63;;
24401;SDS011;12539;48.808;11.292;2022-09-14T14:31:42;2.50;;;1.75;;
24401;SDS011;12539;48.808;11.292;2022-09-14T14:36:45;2.25;;;1.67;;
24401;SDS011;12539;48.808;11.292;2022-09-14T14:39:18;2.67;;;2.30;;
24401;SDS011;12539;48.808;11.292;2022-09-14T14:41:46;2.45;;;1.98;;
24401;SDS011;12539;48.808;11.292;2022-09-14T14:44:20;2.35;;;1.70;;
24401;SDS011;12539;48.808;11.292;2022-09-14T14:46:48;1.95;;;1.60;;
24401;SDS011;12539;48.808;11.292;2022-09-14T14:49:15;3.28;;;2.45;;
24401;SDS011;12539;48.808;11.292;2022-09-14T14:51:42;6.82;;;2.55;;
24401;SDS011;12539;48.808;11.292;2022-09-14T14:54:08;3.05;;;2.33;;
24401;SDS011;12539;48.808;11.292;2022-09-14T14:56:35;2.35;;;2.00;;
24401;SDS011;12539;48.808;11.292;2022-09-14T14:59:14;4.13;;;2.72;;
24401;SDS011;12539;48.808;11.292;2022-09-14T15:01:49;6.10;;;3.35;;
24401;SDS011;12539;48.808;11.292;2022-09-14T15:04:16;6.60;;;2.67;;
24401;SDS011;12539;48.808;11.292;2022-09-14T15:06:42;5.57;;;3.25;;
24401;SDS011;12539;48.808;11.292;2022-09-14T15:09:17;3.53;;;2.88;;
24401;SDS011;12539;48.808;11.292;2022-09-14T15:11:46;4.95;;;3.17;;
24401;SDS011;12539;48.808;11.292;2022-09-14T15:14:13;4.85;;;2.63;;
24401;SDS011;12539;48.808;11.292;2022-09-14T15:16:40;6.88;;;3.00;;
24401;SDS011;12539;48.808;11.292;2022-09-14T15:19:06;5.53;;;2.55;;
24401;SDS011;12539;48.808;11.292;2022-09-14T15:21:34;3.97;;;2.70;;
24401;SDS011;12539;48.808;11.292;2022-09-14T15:24:00;4.43;;;2.88;;
24401;SDS011;12539;48.808;11.292;2022-09-14T15:26:27;5.22;;;3.13;;
24401;SDS011;12539;48.808;11.292;2022-09-14T15:28:52;5.53;;;3.55;;
24401;SDS011;12539;48.808;11.292;2022-09-14T15:31:18;5.93;;;2.55;;
24401;SDS011;12539;48.808;11.292;2022-09-14T15:33:44;4.80;;;2.50;;
24401;SDS011;12539;48.808;11.292;2022-09-14T15:36:10;9.05;;;2.03;;
24401;SDS011;12539;48.808;11.292;2022-09-14T15:38:36;4.57;;;2.10;;
24401;SDS011;12539;48.808;11.292;2022-09-14T15:41:02;2.92;;;1.85;;
24401;SDS011;12539;48.808;11.292;2022-09-14T15:43:27;3.00;;;1.98;;
24401;SDS011;12539;48.808;11.292;2022-09-14T15:45:53;4.07;;;1.98;;
24401;SDS011;12539;48.808;11.292;2022-09-14T15:48:19;1.73;;;1.42;;
24401;SDS011;12539;48.808;11.292;2022-09-14T15:50:47;3.50;;;1.85;;
24401;SDS011;12539;48.808;11.292;2022-09-14T15:53:14;3.53;;;1.50;;
24401;SDS011;12539;48.808;11.292;2022-09-14T15:55:41;2.28;;;1.48;;
24401;SDS011;12539;48.808;11.292;2022-09-14T15:58:08;4.82;;;2.17;;
24401;SDS011;12539;48.808;11.292;2022-09-14T16:00:35;2.63;;;1.50;;
24401;SDS011;12539;48.808;11.292;2022-09-14T16:03:02;1.92;;;1.35;;
24401;SDS011;12539;48.808;11.292;2022-09-14T16:05:28;2.83;;;1.40;;
24401;SDS011;12539;48.808;11.292;2022-09-14T16:07:55;4.72;;;1.73;;
24401;SDS011;12539;48.808;11.292;2022-09-14T16:10:21;3.10;;;1.55;;
24401;SDS011;12539;48.808;11.292;2022-09-14T16:12:50;2.63;;;1.75;;
24401;SDS011;12539;48.808;11.292;2022-09-14T16:15:18;2.50;;;1.92;;
24401;SDS011;12539;48.808;11.292;2022-09-14T16:17:47;3.25;;;1.85;;
24401;SDS011;12539;48.808;11.292;2022-09-14T16:22:40;5.82;;;1.55;;
24401;SDS011;12539;48.808;11.292;2022-09-14T16:25:06;2.65;;;1.70;;
24401;SDS011;12539;48.808;11.292;2022-09-14T16:27:32;2.55;;;1.58;;
24401;SDS011;12539;48.808;11.292;2022-09-14T16:29:57;1.75;;;1.55;;
24401;SDS011;12539;48.808;11.292;2022-09-14T16:32:23;5.60;;;1.92;;
24401;SDS011;12539;48.808;11.292;2022-09-14T16:34:49;2.92;;;2.17;;
24401;SDS011;12539;48.808;11.292;2022-09-14T16:37:14;1.60;;;1.50;;
24401;SDS011;12539;48.808;11.292;2022-09-14T16:39:40;2.63;;;1.80;;
24401;SDS011;12539;48.808;11.292;2022-09-14T16:42:06;3.85;;;1.60;;
24401;SDS011;12539;48.808;11.292;2022-09-14T16:44:32;2.10;;;1.90;;
24401;SDS011;12539;48.808;11.292;2022-09-14T16:47:02;1.90;;;1.73;;
24401;SDS011;12539;48.808;11.292;2022-09-14T16:49:28;2.88;;;1.63;;
24401;SDS011;12539;48.808;11.292;2022-09-14T16:51:54;2.78;;;1.40;;
24401;SDS011;12539;48.808;11.292;2022-09-14T16:54:21;1.63;;;1.52;;
24401;SDS011;12539;48.808;11.292;2022-09-14T16:56:48;2.38;;;1.90;;
24401;SDS011;12539;48.808;11.292;2022-09-14T16:59:14;2.92;;;1.40;;
24401;SDS011;12539;48.808;11.292;2022-09-14T17:01:42;2.85;;;1.90;;
24401;SDS011;12539;48.808;11.292;2022-09-14T17:04:11;1.90;;;1.80;;
24401;SDS011;12539;48.808;11.292;2022-09-14T17:06:41;3.05;;;2.13;;
24401;SDS011;12539;48.808;11.292;2022-09-14T17:09:10;2.47;;;1.77;;
24401;SDS011;12539;48.808;11.292;2022-09-14T17:11:38;3.22;;;2.13;;
24401;SDS011;12539;48.808;11.292;2022-09-14T17:14:04;1.90;;;1.65;;